Time;durP1;ratioP1;P1;durP2;ratioP2;P2;SDS_P1;SDS_P2;PMS_P1;PMS_P2;Temp;Humidity;BMP_temperature;BMP_pressure;BME280_temperature;BME280_humidity;BME280_pressure;Samples;Min_cycle;Max_cycle;Signal;HPM_P1;HPM_P2
2023/01/14 00:01:13;;;;;;;12.20;2.28;;;;;;;14.39;84.72;101354.25;5030317;28;20029;-52
2023/01/14 00:03:39;;;;;;;4.63;1.50;;;;;;;14.32;84.86;101356.97;5031343;28;20075;-54
2023/01/14 00:06:06;;;;;;;8.30;2.10;;;;;;;14.30;84.80;101356.38;5031122;28;20026;-54
2023/01/14 00:08:34;;;;;;;12.32;1.83;;;;;;;14.36;84.40;101355.50;5030807;28;20042;-53
2023/01/14 00:11:02;;;;;;;8.00;1.50;;;;;;;14.24;84.45;101362.63;5030535;28;20025;-53
2023/01/14 00:13:28;;;;;;;6.72;2.17;;;;;;;14.19;83.87;101357.06;5031184;28;20100;-53
2023/01/14 00:15:57;;;;;;;9.10;2.10;;;;;;;14.19;83.17;101360.56;5031674;28;20052;-54
2023/01/14 00:18:24;;;;;;;8.73;1.77;;;;;;;14.24;82.65;101365.31;5031340;28;20029;-53
2023/01/14 00:21:05;;;;;;;10.50;1.75;;;;;;;14.28;82.10;101361.16;5030722;28;20029;-53
2023/01/14 00:23:33;;;;;;;8.13;2.40;;;;;;;14.26;81.58;101363.22;5030390;28;20375;-53
2023/01/14 00:26:11;;;;;;;13.20;3.00;;;;;;;14.25;81.75;101365.09;5030895;28;20510;-54
2023/01/14 00:28:38;;;;;;;17.63;3.17;;;;;;;14.17;82.26;101359.97;5030975;28;20744;-54
2023/01/14 00:31:10;;;;;;;15.57;3.63;;;;;;;14.00;83.26;101359.66;5030279;28;20061;-53
2023/01/14 00:33:37;;;;;;;15.38;3.40;;;;;;;14.06;83.06;101370.63;5030554;28;20517;-53
2023/01/14 00:36:08;;;;;;;22.23;4.07;;;;;;;14.02;83.71;101372.09;5030889;28;20037;-53
2023/01/14 00:38:35;;;;;;;13.52;4.05;;;;;;;14.09;83.77;101372.84;5030707;28;20057;-53
2023/01/14 00:41:10;;;;;;;16.33;3.53;;;;;;;14.09;83.85;101378.25;5030838;28;20048;-53
2023/01/14 00:43:42;;;;;;;13.25;3.33;;;;;;;14.10;83.02;101374.50;5032155;28;20037;-53
2023/01/14 00:46:11;;;;;;;14.30;2.90;;;;;;;14.05;82.98;101380.56;5018002;28;20042;-53
2023/01/14 00:48:38;;;;;;;12.00;3.45;;;;;;;13.93;82.92;101377.69;5034326;28;20025;-52
2023/01/14 00:51:05;;;;;;;10.98;3.13;;;;;;;13.98;83.00;101367.13;5034166;28;20029;-52
2023/01/14 00:53:31;;;;;;;18.38;3.05;;;;;;;13.91;82.77;101366.34;5034654;28;20139;-54
2023/01/14 00:55:58;;;;;;;11.25;3.08;;;;;;;13.86;83.67;101368.03;5034051;28;20117;-53
2023/01/14 00:58:25;;;;;;;9.73;2.70;;;;;;;13.85;83.34;101367.19;5024438;28;20120;-52
2023/01/14 01:00:53;;;;;;;10.77;3.17;;;;;;;13.93;83.53;101363.41;5033407;28;20446;-53
2023/01/14 01:03:19;;;;;;;16.70;3.80;;;;;;;13.96;83.23;101379.97;5034359;28;20061;-55
2023/01/14 01:05:46;;;;;;;14.82;3.22;;;;;;;13.95;83.50;101378.31;5034006;28;20037;-55
2023/01/14 01:08:15;;;;;;;9.95;3.10;;;;;;;13.99;82.63;101373.31;5034072;28;20369;-53
2023/01/14 01:10:45;;;;;;;11.88;3.33;;;;;;;13.99;83.09;101381.41;5033926;28;20030;-54
2023/01/14 01:13:12;;;;;;;12.38;2.92;;;;;;;13.99;82.70;101382.25;5033704;28;20041;-52
2023/01/14 01:15:40;;;;;;;12.80;2.80;;;;;;;13.92;82.88;101373.38;5033313;28;20063;-52
2023/01/14 01:18:07;;;;;;;18.92;3.50;;;;;;;13.82;83.44;101372.16;5040503;23;20050;-59
2023/01/14 01:20:34;;;;;;;12.38;2.85;;;;;;;13.93;82.47;101368.81;5033678;28;20064;-53
2023/01/14 01:23:01;;;;;;;15.15;3.45;;;;;;;13.90;82.13;101369.25;5031029;28;20607;-52
2023/01/14 01:25:27;;;;;;;10.55;3.00;;;;;;;13.78;82.35;101376.34;5033564;28;20384;-50
2023/01/14 01:27:55;;;;;;;13.43;4.30;;;;;;;13.69;83.46;101384.66;5033691;28;20025;-53
2023/01/14 01:30:22;;;;;;;15.73;4.10;;;;;;;13.77;82.92;101375.53;5033679;28;20172;-52
2023/01/14 01:32:48;;;;;;;14.63;3.00;;;;;;;13.65;83.75;101378.03;5033534;28;20044;-53
2023/01/14 01:35:15;;;;;;;17.38;3.25;;;;;;;13.69;83.67;101373.06;5033291;28;20487;-53
2023/01/14 01:37:41;;;;;;;16.80;3.60;;;;;;;13.64;84.10;101391.72;5033781;28;20460;-53
2023/01/14 01:40:29;;;;;;;11.75;3.17;;;;;;;13.70;83.45;101390.84;5033367;28;20529;-51
2023/01/14 01:42:55;;;;;;;7.90;2.42;;;;;;;13.65;83.86;101394.19;4971594;28;20061;-53
2023/01/14 01:45:27;;;;;;;18.73;3.95;;;;;;;13.56;84.29;101390.09;4971799;28;20042;-54
2023/01/14 01:48:06;;;;;;;17.33;3.70;;;;;;;13.61;84.12;101387.59;4960319;28;20464;-54
2023/01/14 01:50:33;;;;;;;20.35;4.28;;;;;;;13.59;84.63;101383.44;4971903;28;20613;-54
2023/01/14 01:53:00;;;;;;;20.25;3.95;;;;;;;13.63;84.45;101384.69;4971164;28;20070;-54
2023/01/14 01:55:28;;;;;;;19.48;4.20;;;;;;;13.64;84.19;101387.16;4951962;28;20046;-54
2023/01/14 01:57:55;;;;;;;23.27;4.80;;;;;;;13.65;84.38;101390.66;4958483;28;20432;-53
2023/01/14 02:00:24;;;;;;;16.60;3.88;;;;;;;13.71;84.03;101389.81;4962191;28;20118;-54
2023/01/14 02:02:56;;;;;;;13.02;3.40;;;;;;;13.69;84.48;101389.22;4966155;28;20117;-56
2023/01/14 02:05:23;;;;;;;14.68;4.22;;;;;;;13.67;83.94;101396.69;4971124;28;20031;-54
2023/01/14 02:07:52;;;;;;;22.80;4.68;;;;;;;13.63;84.30;101400.81;4967474;28;20608;-54
2023/01/14 02:10:20;;;;;;;19.35;3.58;;;;;;;13.76;83.54;101395.38;4959271;28;20039;-53
2023/01/14 02:13:11;;;;;;;15.70;3.63;;;;;;;13.73;83.57;101401.19;4962256;28;20160;-54
2023/01/14 02:16:11;;;;;;;14.75;3.92;;;;;;;13.67;83.83;101410.94;4925964;28;20051;-53
2023/01/14 02:19:14;;;;;;;16.33;4.28;;;;;;;13.71;83.76;101412.19;4952677;28;20090;-53
2023/01/14 02:22:07;;;;;;;11.80;3.58;;;;;;;13.73;83.89;101406.59;5023190;28;20094;-54
2023/01/14 02:25:17;;;;;;;13.98;3.38;;;;;;;13.73;83.78;101404.72;4979301;28;20415;-55
2023/01/14 02:28:01;;;;;;;15.55;4.10;;;;;;;13.67;84.08;101408.25;5000098;28;20064;-54
2023/01/14 02:30:51;;;;;;;12.20;3.35;;;;;;;13.68;84.61;101406.38;5031149;28;20087;-54
2023/01/14 02:33:17;;;;;;;16.30;3.90;;;;;;;13.63;84.53;101406.19;5013553;28;20037;-54
2023/01/14 02:36:17;;;;;;;16.00;3.72;;;;;;;13.63;84.59;101403.50;5022759;28;20116;-54
2023/01/14 02:39:00;;;;;;;12.13;4.03;;;;;;;13.64;84.42;101407.84;5032503;28;20033;-53
2023/01/14 02:44:30;;;;;;;8.77;2.95;;;;;;;13.66;83.69;101405.78;5021117;28;20542;-53
2023/01/14 02:47:06;;;;;;;9.93;2.50;;;;;;;13.71;82.91;101411.31;5013148;28;20045;-55
2023/01/14 02:49:40;;;;;;;6.82;2.20;;;;;;;13.61;82.85;101406.41;5017851;28;20040;-54
2023/01/14 02:52:08;;;;;;;11.10;2.63;;;;;;;13.47;82.58;101400.25;5032047;28;20045;-54
2023/01/14 02:54:34;;;;;;;11.93;2.85;;;;;;;13.52;82.75;101409.53;5031463;28;20044;-53
2023/01/14 02:57:21;;;;;;;11.20;2.40;;;;;;;13.48;83.04;101399.19;5032062;28;20029;-54
2023/01/14 02:59:51;;;;;;;14.00;2.00;;;;;;;13.48;83.05;101396.50;5016599;28;20388;-53
2023/01/14 03:02:20;;;;;;;8.43;1.88;;;;;;;13.64;81.93;101397.91;5031896;28;20025;-54
2023/01/14 03:05:09;;;;;;;7.43;4.00;;;;;;;13.57;82.18;101391.75;5031682;28;20113;-55
2023/01/14 03:07:50;;;;;;;12.13;2.92;;;;;;;13.62;81.61;101394.63;5028830;28;20030;-54
2023/01/14 03:10:41;;;;;;;7.50;2.40;;;;;;;13.58;81.74;101395.25;5012310;28;20073;-54
2023/01/14 03:13:29;;;;;;;9.07;2.35;;;;;;;13.61;82.04;101397.53;5012236;28;20495;-54
2023/01/14 03:16:13;;;;;;;6.50;2.33;;;;;;;13.45;82.84;101399.63;5034946;23;20049;-54
2023/01/14 03:19:06;;;;;;;6.53;1.80;;;;;;;13.53;82.56;101405.81;5031933;28;20030;-53
2023/01/14 03:21:40;;;;;;;9.02;2.08;;;;;;;13.56;82.35;101408.09;5021261;28;20048;-53
2023/01/14 03:24:18;;;;;;;10.68;2.35;;;;;;;13.54;82.61;101402.09;5032172;28;20037;-53
2023/01/14 03:26:48;;;;;;;9.50;2.65;;;;;;;13.50;82.81;101396.31;5031598;28;20030;-54
2023/01/14 03:29:26;;;;;;;10.63;1.70;;;;;;;13.33;83.08;101395.94;5031259;28;20037;-54
2023/01/14 03:32:07;;;;;;;5.72;2.00;;;;;;;13.46;82.85;101393.22;5017800;28;20044;-54
2023/01/14 03:34:45;;;;;;;8.52;1.83;;;;;;;13.39;83.11;101389.72;5031722;28;20033;-54
2023/01/14 03:37:15;;;;;;;8.70;2.28;;;;;;;13.33;83.44;101385.19;5031661;28;20468;-54
2023/01/14 03:39:45;;;;;;;13.10;2.55;;;;;;;13.34;83.16;101377.97;5031127;28;20026;-54
2023/01/14 03:42:20;;;;;;;11.48;2.50;;;;;;;13.45;83.10;101388.88;5016323;28;20025;-54
2023/01/14 03:45:27;;;;;;;10.40;2.50;;;;;;;13.43;83.33;101385.56;5031030;28;20030;-54
2023/01/14 03:47:54;;;;;;;8.70;2.42;;;;;;;13.38;83.65;101382.72;5031427;28;20068;-55
2023/01/14 03:50:26;;;;;;;13.52;2.97;;;;;;;13.37;84.01;101385.59;5031170;28;20044;-54
2023/01/14 03:53:27;;;;;;;15.50;3.15;;;;;;;13.43;83.88;101388.25;5031527;28;20048;-54
2023/01/14 03:55:57;;;;;;;7.03;2.42;;;;;;;13.19;85.18;101389.72;5017299;28;20096;-55
2023/01/14 03:58:39;;;;;;;7.90;3.13;;;;;;;13.22;85.21;101388.53;4999677;28;20118;-55
2023/01/14 04:01:20;;;;;;;20.70;3.83;;;;;;;13.39;84.75;101397.78;4996360;28;20026;-56
2023/01/14 04:03:47;;;;;;;10.40;2.90;;;;;;;13.31;85.13;101397.19;5011794;28;20479;-55
2023/01/14 04:06:14;;;;;;;13.07;3.58;;;;;;;13.43;84.73;101385.56;5011571;28;20411;-56
2023/01/14 04:08:40;;;;;;;11.68;3.35;;;;;;;13.28;85.45;101376.94;5011279;28;20041;-55
2023/01/14 04:11:08;;;;;;;14.82;4.32;;;;;;;13.33;85.48;101374.44;5007730;28;20022;-53
2023/01/14 04:16:19;;;;;;;8.77;3.80;;;;;;;13.26;85.26;101362.84;5011591;28;20104;-53
2023/01/14 04:18:45;;;;;;;10.93;3.88;;;;;;;13.18;85.33;101353.13;5016199;28;20041;-54
2023/01/14 04:21:11;;;;;;;13.45;3.47;;;;;;;13.17;85.74;101353.34;5014738;28;20029;-51
2023/01/14 04:23:37;;;;;;;12.73;3.97;;;;;;;13.27;84.88;101356.47;5014928;28;20388;-52
2023/01/14 04:26:04;;;;;;;12.75;3.95;;;;;;;13.23;85.13;101366.00;5017016;28;20464;-52
2023/01/14 04:28:30;;;;;;;9.45;3.00;;;;;;;13.39;83.89;101367.41;5021519;28;20033;-52
2023/01/14 04:30:56;;;;;;;7.95;3.28;;;;;;;13.40;83.45;101375.25;5014878;28;20026;-53
2023/01/14 04:33:23;;;;;;;12.43;2.92;;;;;;;13.33;83.67;101374.44;5014638;28;20395;-52
2023/01/14 04:35:50;;;;;;;11.57;3.30;;;;;;;13.42;83.11;101386.59;5015566;28;20100;-55
2023/01/14 04:38:20;;;;;;;9.93;2.88;;;;;;;13.21;83.83;101370.72;5015600;28;20029;-54
2023/01/14 04:40:54;;;;;;;10.23;2.88;;;;;;;13.14;84.13;101370.72;4997446;28;20037;-53
2023/01/14 04:43:21;;;;;;;7.65;2.05;;;;;;;13.17;83.56;101367.63;5000950;28;20022;-53
2023/01/14 04:45:54;;;;;;;10.00;2.13;;;;;;;13.07;83.59;101369.09;5015310;28;20081;-54
2023/01/14 04:48:22;;;;;;;14.07;2.22;;;;;;;13.03;83.50;101363.28;5015329;28;20080;-54
2023/01/14 04:50:50;;;;;;;8.45;1.67;;;;;;;13.10;82.98;101358.75;5014860;28;20113;-54
2023/01/14 04:53:24;;;;;;;10.80;1.63;;;;;;;13.12;82.86;101358.53;5014838;28;20088;-55
2023/01/14 04:55:57;;;;;;;8.48;2.55;;;;;;;13.13;82.58;101357.50;5013014;28;20030;-54
2023/01/14 04:58:24;;;;;;;6.53;1.88;;;;;;;13.06;82.96;101346.75;5014194;28;20062;-54
2023/01/14 05:00:53;;;;;;;5.75;2.13;;;;;;;13.12;82.37;101353.16;5014614;28;20025;-54
2023/01/14 05:03:20;;;;;;;6.40;1.58;;;;;;;13.03;82.53;101340.97;5013478;28;20118;-54
2023/01/14 05:05:46;;;;;;;4.38;1.58;;;;;;;12.93;83.04;101336.03;5014798;28;20029;-53
2023/01/14 05:08:13;;;;;;;4.35;1.38;;;;;;;12.94;83.17;101335.84;5012980;28;20508;-52
2023/01/14 05:10:40;;;;;;;6.38;1.83;;;;;;;12.98;83.42;101328.16;5014544;28;20038;-54
2023/01/14 05:13:07;;;;;;;7.38;1.55;;;;;;;12.91;83.16;101320.13;5013693;28;20080;-54
2023/01/14 05:15:37;;;;;;;7.38;1.50;;;;;;;12.97;83.32;101323.81;5014467;28;20046;-54
2023/01/14 05:18:05;;;;;;;7.45;1.30;;;;;;;13.11;82.88;101330.84;5008035;28;20484;-53
2023/01/14 05:20:31;;;;;;;4.20;1.38;;;;;;;13.10;82.72;101328.34;5005268;28;20065;-54
2023/01/14 05:23:00;;;;;;;5.13;1.75;;;;;;;13.16;82.72;101320.28;5012788;28;20030;-53
2023/01/14 05:25:28;;;;;;;6.93;1.92;;;;;;;13.08;83.12;101312.44;5013236;28;20022;-53
2023/01/14 05:27:59;;;;;;;4.47;1.35;;;;;;;13.08;83.34;101307.06;5012977;28;20113;-54
2023/01/14 05:30:26;;;;;;;4.22;1.63;;;;;;;13.13;83.05;101314.50;5013214;28;20057;-54
2023/01/14 05:32:52;;;;;;;4.97;1.55;;;;;;;13.20;82.48;101308.03;5012865;28;20112;-53
2023/01/14 05:35:18;;;;;;;4.18;1.73;;;;;;;13.13;83.20;101317.19;5013679;28;20036;-52
2023/01/14 05:37:44;;;;;;;5.28;1.60;;;;;;;13.00;83.80;101309.16;5010582;28;20044;-53
2023/01/14 05:40:11;;;;;;;6.53;1.50;;;;;;;12.93;84.39;101319.91;5013379;28;20026;-54
2023/01/14 05:48:09;;;;;;;7.43;2.90;;;;;;;12.95;85.06;101318.66;5014307;28;20032;-54
2023/01/14 05:50:35;;;;;;;8.05;2.97;;;;;;;12.91;85.58;101314.75;5011795;28;20030;-54
2023/01/14 05:53:02;;;;;;;6.03;2.83;;;;;;;12.94;85.42;101311.66;5012140;28;20129;-53
2023/01/14 05:55:29;;;;;;;7.53;2.88;;;;;;;12.88;86.02;101309.81;5013616;28;20610;-54
2023/01/14 05:58:00;;;;;;;8.50;2.95;;;;;;;13.03;85.23;101322.97;5012246;28;20030;-52
2023/01/14 06:08:45;;;;;;;6.22;1.83;;;;;;;12.92;84.62;101320.94;5014189;28;20114;-54
2023/01/14 06:11:11;;;;;;;6.93;1.98;;;;;;;13.01;84.39;101316.19;5012116;28;20458;-54
2023/01/14 06:13:37;;;;;;;4.82;1.98;;;;;;;12.92;84.73;101311.00;5011923;28;20061;-54
2023/01/14 06:16:07;;;;;;;5.53;1.85;;;;;;;12.95;84.77;101310.59;5012785;28;20120;-55
2023/01/14 06:18:43;;;;;;;6.50;2.28;;;;;;;12.98;84.41;101311.22;5011553;28;20038;-53
2023/01/14 06:21:13;;;;;;;8.23;2.88;;;;;;;13.05;83.86;101312.88;5012950;28;20100;-53
2023/01/14 06:23:39;;;;;;;6.90;2.53;;;;;;;12.99;83.71;101316.38;5011809;28;20121;-54
2023/01/14 06:26:13;;;;;;;4.80;2.00;;;;;;;12.98;83.92;101309.34;5012943;28;20041;-53
2023/01/14 06:28:40;;;;;;;3.33;1.80;;;;;;;12.96;83.90;101308.75;5012918;28;20041;-54
2023/01/14 06:31:15;;;;;;;2.95;1.33;;;;;;;13.01;83.65;101302.75;5012808;28;20028;-54
2023/01/14 06:33:42;;;;;;;5.03;1.70;;;;;;;12.87;83.77;101297.38;5007801;28;20515;-54
2023/01/14 06:36:10;;;;;;;6.35;1.75;;;;;;;12.93;83.62;101296.53;5012887;28;20069;-55
2023/01/14 06:38:37;;;;;;;4.88;1.52;;;;;;;13.02;83.17;101296.34;5011052;28;20026;-55
2023/01/14 06:41:05;;;;;;;4.70;1.45;;;;;;;12.98;83.38;101290.53;5010760;28;20149;-55
2023/01/14 06:43:32;;;;;;;5.03;1.58;;;;;;;13.08;82.86;101282.88;5012728;28;20176;-56
2023/01/14 06:45:59;;;;;;;7.13;1.50;;;;;;;13.05;82.95;101279.81;5012611;28;20060;-55
2023/01/14 06:48:26;;;;;;;6.60;1.83;;;;;;;13.16;82.71;101276.47;5009621;28;20034;-55
2023/01/14 06:50:53;;;;;;;4.95;1.23;;;;;;;13.04;82.93;101288.88;5012354;28;20116;-55
2023/01/14 06:53:20;;;;;;;6.72;1.38;;;;;;;12.99;82.97;101272.56;5012568;28;20049;-54
2023/01/14 06:55:48;;;;;;;5.40;1.90;;;;;;;12.95;83.33;101274.84;5012605;28;20084;-55
2023/01/14 06:58:15;;;;;;;7.82;1.48;;;;;;;13.05;83.20;101275.25;5012370;28;20033;-52
2023/01/14 07:00:41;;;;;;;4.80;1.55;;;;;;;13.08;83.37;101269.44;5010690;28;20034;-54
2023/01/14 07:03:08;;;;;;;5.03;1.35;;;;;;;13.11;83.12;101265.50;5012533;28;20034;-54
2023/01/14 07:05:34;;;;;;;3.55;1.58;;;;;;;13.00;83.60;101267.00;5011255;28;20037;-52
2023/01/14 07:08:00;;;;;;;5.60;1.42;;;;;;;13.02;83.97;101258.72;5010234;28;20365;-53
2023/01/14 07:10:26;;;;;;;3.83;1.90;;;;;;;12.89;84.50;101244.28;5012283;28;20036;-53
2023/01/14 07:12:53;;;;;;;6.90;2.00;;;;;;;12.97;83.85;101239.72;5011634;28;20045;-53
2023/01/14 07:15:21;;;;;;;4.53;1.63;;;;;;;12.91;83.91;101247.56;5012219;28;20473;-54
2023/01/14 07:17:49;;;;;;;7.70;1.65;;;;;;;12.94;83.79;101239.09;5011862;28;20037;-55
2023/01/14 07:20:16;;;;;;;4.72;1.35;;;;;;;12.85;84.01;101242.22;5011841;28;20120;-54
2023/01/14 07:22:42;;;;;;;4.75;1.50;;;;;;;12.88;83.93;101237.28;5011028;28;20044;-54
2023/01/14 07:25:09;;;;;;;4.03;1.38;;;;;;;12.86;84.03;101228.56;5011886;28;20033;-54
2023/01/14 07:27:35;;;;;;;3.50;1.80;;;;;;;12.96;83.38;101228.13;5010872;28;20022;-55
2023/01/14 07:30:03;;;;;;;5.22;1.45;;;;;;;12.97;83.11;101218.22;5011585;28;20479;-53
2023/01/14 07:32:32;;;;;;;4.85;1.50;;;;;;;12.98;82.93;101219.84;5010130;28;20037;-55
2023/01/14 07:34:59;;;;;;;4.45;1.13;;;;;;;13.06;82.45;101227.69;5011572;28;20049;-53
2023/01/14 07:37:25;;;;;;;4.10;1.35;;;;;;;13.08;82.12;101220.22;5010488;28;20053;-54
2023/01/14 07:39:51;;;;;;;4.60;1.13;;;;;;;13.07;82.02;101216.72;5011330;28;20037;-54
2023/01/14 07:42:18;;;;;;;3.70;1.42;;;;;;;12.94;82.56;101214.09;5011580;28;20479;-53
2023/01/14 07:44:45;;;;;;;5.10;1.30;;;;;;;12.97;82.46;101213.66;5011491;28;20030;-53
2023/01/14 07:47:12;;;;;;;3.45;1.17;;;;;;;12.87;82.32;101203.34;5010433;28;20018;-53
2023/01/14 07:49:39;;;;;;;3.78;1.20;;;;;;;12.91;82.37;101203.75;5011273;28;20057;-53
2023/01/14 07:52:06;;;;;;;2.95;1.02;;;;;;;12.97;82.04;101204.78;5010332;28;20022;-53
2023/01/14 07:54:33;;;;;;;3.20;1.20;;;;;;;13.04;81.88;101197.50;5010794;28;20065;-53
2023/01/14 07:56:59;;;;;;;6.00;1.35;;;;;;;13.00;81.94;101189.06;5010529;28;20542;-54
2023/01/14 07:59:25;;;;;;;4.03;1.38;;;;;;;13.17;81.05;101176.78;5011220;28;20026;-53
2023/01/14 08:01:51;;;;;;;4.72;1.02;;;;;;;13.02;81.49;101168.16;5009657;28;20033;-52
2023/01/14 08:04:18;;;;;;;2.00;1.20;;;;;;;13.16;81.29;101159.00;5010870;28;20499;-53
2023/01/14 08:06:44;;;;;;;2.08;1.00;;;;;;;13.09;81.27;101143.94;5011148;28;20037;-53
2023/01/14 08:09:10;;;;;;;2.78;0.80;;;;;;;13.04;81.83;101141.06;5018346;23;20014;-54
2023/01/14 08:11:37;;;;;;;3.45;1.15;;;;;;;13.05;81.54;101127.44;5030220;28;20033;-54
2023/01/14 08:14:03;;;;;;;2.15;0.95;;;;;;;13.24;80.88;101119.50;5027851;28;20548;-53
2023/01/14 08:16:30;;;;;;;4.20;1.00;;;;;;;13.17;80.95;101123.03;5030820;28;20033;-53
2023/01/14 08:18:56;;;;;;;3.40;1.10;;;;;;;13.07;81.45;101116.47;5028579;28;20357;-55
2023/01/14 08:21:22;;;;;;;5.63;1.25;;;;;;;13.13;81.02;101107.53;5030616;28;20493;-53
2023/01/14 08:23:48;;;;;;;2.03;0.90;;;;;;;13.16;81.10;101110.63;5029826;28;20125;-54
2023/01/14 08:26:15;;;;;;;4.03;1.02;;;;;;;13.29;80.56;101112.44;5030736;28;20030;-53
2023/01/14 08:28:41;;;;;;;2.00;1.08;;;;;;;13.22;80.79;101106.28;5030538;28;20114;-53
2023/01/14 08:31:11;;;;;;;3.40;1.10;;;;;;;13.20;80.76;101094.88;5030610;28;20029;-54
2023/01/14 08:33:39;;;;;;;2.78;0.70;;;;;;;13.32;80.58;101093.16;5030723;28;20044;-52
2023/01/14 08:36:09;;;;;;;6.05;1.17;;;;;;;13.16;81.16;101086.44;5028722;28;20099;-53
2023/01/14 08:38:37;;;;;;;3.92;1.05;;;;;;;13.24;80.84;101077.31;5023923;28;20116;-53
2023/01/14 08:41:09;;;;;;;2.63;1.00;;;;;;;13.15;81.20;101079.41;5023779;28;20029;-52
2023/01/14 08:43:36;;;;;;;2.45;1.25;;;;;;;13.17;81.07;101071.97;5030606;28;20033;-53
2023/01/14 08:46:03;;;;;;;4.30;1.10;;;;;;;13.21;81.10;101058.91;5030993;28;20026;-53
2023/01/14 08:48:30;;;;;;;3.72;0.73;;;;;;;13.38;80.75;101068.13;5017697;28;20560;-52
2023/01/14 08:51:03;;;;;;;4.43;1.15;;;;;;;13.25;80.99;101064.69;5026594;28;20021;-52
2023/01/14 08:53:30;;;;;;;2.10;1.00;;;;;;;13.26;81.17;101053.72;4994281;28;20037;-52
2023/01/14 08:55:58;;;;;;;2.75;0.95;;;;;;;13.36;80.92;101037.91;5010770;28;20098;-51
2023/01/14 08:58:26;;;;;;;6.43;1.40;;;;;;;13.34;81.13;101034.66;5010324;28;20033;-52
2023/01/14 09:01:07;;;;;;;5.40;1.20;;;;;;;13.15;81.90;101035.56;5009765;28;20057;-53
2023/01/14 09:03:35;;;;;;;3.72;1.13;;;;;;;13.26;81.76;101021.47;4996203;28;20530;-52
2023/01/14 09:06:03;;;;;;;3.38;1.10;;;;;;;13.22;81.67;101020.28;5013338;28;20123;-53
2023/01/14 09:17:06;;;;;;;7.75;1.27;;;;;;;13.24;81.87;100983.22;5014465;28;20060;-52
2023/01/14 09:19:36;;;;;;;7.93;1.50;;;;;;;13.24;81.93;100972.47;5026186;28;20065;-50
2023/01/14 09:22:04;;;;;;;2.53;1.27;;;;;;;13.12;82.71;100979.59;5013106;28;20038;-53
2023/01/14 09:24:30;;;;;;;4.13;1.20;;;;;;;13.17;82.12;100977.06;5013904;28;20117;-52
2023/01/14 09:26:57;;;;;;;5.10;1.45;;;;;;;13.17;82.46;100966.31;5012248;28;20696;-52
2023/01/14 09:29:24;;;;;;;4.28;1.10;;;;;;;13.12;82.74;100958.91;5013945;28;20399;-52
2023/01/14 09:31:50;;;;;;;3.22;1.00;;;;;;;13.19;82.36;100958.84;5012883;28;20033;-52
2023/01/14 09:34:16;;;;;;;3.05;1.27;;;;;;;13.14;82.91;100947.94;5013889;28;20030;-52
2023/01/14 09:36:42;;;;;;;3.63;1.00;;;;;;;13.27;82.20;100938.94;5012859;28;20083;-53
2023/01/14 09:39:09;;;;;;;5.43;1.58;;;;;;;13.30;81.88;100938.53;5013805;28;20109;-52
2023/01/14 09:41:40;;;;;;;2.55;0.93;;;;;;;13.13;82.55;100927.47;5012780;28;20499;-52
2023/01/14 09:44:08;;;;;;;3.67;1.00;;;;;;;13.10;83.00;100934.13;5005234;28;20030;-54
2023/01/14 09:46:36;;;;;;;4.03;0.85;;;;;;;13.25;81.90;100939.19;5024225;28;20026;-53
2023/01/14 09:49:05;;;;;;;3.80;0.80;;;;;;;13.28;81.38;100930.69;5011535;28;20392;-53
2023/01/14 09:51:50;;;;;;;1.63;0.77;;;;;;;13.23;80.88;100932.41;5011453;28;20518;-53
2023/01/14 09:54:34;;;;;;;1.25;0.60;;;;;;;13.29;80.81;100928.81;5013522;28;20128;-53
2023/01/14 09:57:37;;;;;;;4.10;0.75;;;;;;;13.19;81.24;100929.28;5011926;28;20029;-55
2023/01/14 10:00:27;;;;;;;2.70;1.15;;;;;;;13.19;80.84;100916.66;5013118;28;20029;-54
2023/01/14 10:03:16;;;;;;;6.70;0.70;;;;;;;13.26;81.11;100910.44;5011610;28;20053;-54
2023/01/14 10:05:49;;;;;;;1.35;0.52;;;;;;;13.30;80.53;100901.72;5013698;28;20168;-53
2023/01/14 10:08:16;;;;;;;2.38;0.70;;;;;;;13.25;81.09;100896.16;5012158;28;20041;-52
2023/01/14 10:10:45;;;;;;;1.77;0.73;;;;;;;13.25;81.53;100890.78;5012333;28;20565;-55
2023/01/14 10:13:35;;;;;;;3.95;0.93;;;;;;;13.24;81.46;100886.47;5012119;28;20041;-54
2023/01/14 10:16:17;;;;;;;1.98;0.60;;;;;;;13.29;81.41;100883.13;5011226;28;20034;-54
2023/01/14 10:18:56;;;;;;;2.55;0.70;;;;;;;13.30;81.25;100865.94;5012354;28;20045;-54
2023/01/14 10:21:27;;;;;;;3.60;0.88;;;;;;;13.37;81.18;100855.94;5013028;28;20033;-55
2023/01/14 10:23:53;;;;;;;2.67;0.70;;;;;;;13.45;80.74;100853.78;5012828;28;20054;-53
2023/01/14 10:26:22;;;;;;;4.95;1.00;;;;;;;13.40;80.65;100850.94;5011148;28;20088;-54
2023/01/14 10:28:53;;;;;;;5.85;1.05;;;;;;;13.40;80.75;100842.06;5013042;28;20042;-53
2023/01/14 10:31:27;;;;;;;3.08;0.88;;;;;;;13.42;81.94;100842.63;5011334;28;20533;-52
2023/01/14 10:33:53;;;;;;;3.85;0.68;;;;;;;13.37;83.02;100837.94;5013067;28;20049;-53
2023/01/14 10:36:23;;;;;;;4.18;0.90;;;;;;;13.29;84.30;100835.56;5010956;28;20036;-53
2023/01/14 10:38:51;;;;;;;2.28;0.68;;;;;;;13.38;84.65;100830.69;5013142;28;20025;-53
2023/01/14 10:41:48;;;;;;;2.05;0.90;;;;;;;13.40;84.63;100825.91;5012625;28;20503;-54
2023/01/14 10:44:05;;;;;;;1.83;0.70;;;;;;;13.28;85.08;100811.59;5027640;28;20033;-53
2023/01/14 10:46:31;;;;;;;5.63;1.20;;;;;;;13.18;85.66;100801.31;5006228;28;20100;-51
2023/01/14 10:49:02;;;;;;;3.75;0.80;;;;;;;13.05;85.77;100798.78;5012508;28;20025;-53
2023/01/14 10:51:33;;;;;;;1.23;0.50;;;;;;;12.99;86.14;100795.09;5010930;28;20026;-53
2023/01/14 10:54:13;;;;;;;2.42;0.73;;;;;;;13.09;85.50;100781.16;5012674;28;20041;-53
2023/01/14 10:57:04;;;;;;;2.15;0.50;;;;;;;13.09;85.53;100778.47;5000188;28;20469;-53
2023/01/14 10:59:38;;;;;;;1.08;0.50;;;;;;;12.95;85.98;100783.19;5013648;28;20037;-54
2023/01/14 11:02:06;;;;;;;2.33;0.50;;;;;;;12.90;87.42;100774.97;5014766;28;20037;-52
2023/01/14 11:04:35;;;;;;;3.78;0.70;;;;;;;13.05;86.61;100767.38;4995891;28;20037;-50
2023/01/14 11:07:10;;;;;;;5.80;1.10;;;;;;;12.95;87.29;100775.13;5011022;28;20439;-52
2023/01/14 11:09:38;;;;;;;3.20;0.90;;;;;;;12.84;88.87;100759.75;5009608;28;20049;-50
2023/01/14 11:12:05;;;;;;;3.13;0.80;;;;;;;12.76;89.49;100758.16;5009720;28;20084;-52
2023/01/14 11:14:37;;;;;;;1.85;0.60;;;;;;;12.77;90.07;100745.53;5012181;28;20030;-53
2023/01/14 11:17:25;;;;;;;2.65;0.98;;;;;;;12.68;90.72;100745.03;5010963;28;20018;-52
2023/01/14 11:19:51;;;;;;;3.50;0.50;;;;;;;12.76;90.94;100743.91;4998812;28;20040;-53
2023/01/14 11:22:18;;;;;;;2.63;0.60;;;;;;;12.57;91.31;100726.97;5009635;28;20494;-50
2023/01/14 11:24:52;;;;;;;4.20;0.60;;;;;;;12.70;91.04;100718.75;5012307;28;20054;-53
2023/01/14 11:27:22;;;;;;;0.77;0.40;;;;;;;12.69;91.48;100712.56;5010191;28;20785;-52
2023/01/14 11:29:51;;;;;;;1.40;0.35;;;;;;;12.60;92.36;100703.19;5011841;28;20026;-52
2023/01/14 11:32:36;;;;;;;1.40;0.57;;;;;;;12.59;92.05;100698.00;5010140;28;20026;-51
2023/01/14 11:35:06;;;;;;;2.22;1.00;;;;;;;12.42;93.46;100689.72;5008081;28;20080;-51
2023/01/14 11:37:43;;;;;;;3.05;0.55;;;;;;;12.31;93.99;100671.66;5009764;28;20033;-51
2023/01/14 11:40:23;;;;;;;3.15;0.57;;;;;;;12.51;93.61;100666.09;5011208;28;20048;-50
2023/01/14 11:42:51;;;;;;;1.88;0.50;;;;;;;12.47;93.83;100651.47;5010933;28;20057;-49
2023/01/14 11:45:19;;;;;;;1.92;0.70;;;;;;;12.46;93.88;100647.97;5011765;28;20045;-49
2023/01/14 11:47:46;;;;;;;3.92;0.60;;;;;;;12.30;95.13;100630.59;5009950;28;20030;-50
2023/01/14 11:50:34;;;;;;;1.92;0.60;;;;;;;12.41;94.71;100629.84;5011439;28;20103;-51
2023/01/14 11:53:14;;;;;;;3.30;0.68;;;;;;;12.31;94.81;100618.81;5010697;28;20072;-50
2023/01/14 11:55:42;;;;;;;1.60;0.60;;;;;;;12.35;94.67;100603.91;5010529;28;20033;-50
2023/01/14 11:58:15;;;;;;;1.77;0.50;;;;;;;12.43;95.11;100595.53;4998234;28;20030;-50
2023/01/14 12:00:46;;;;;;;2.83;0.63;;;;;;;12.42;95.27;100585.03;5010604;28;20415;-50
2023/01/14 12:03:37;;;;;;;2.22;0.80;;;;;;;12.25;96.44;100586.69;5006782;28;20045;-48
2023/01/14 12:06:15;;;;;;;0.90;0.50;;;;;;;12.34;95.89;100586.16;5010090;28;20057;-49
2023/01/14 12:08:45;;;;;;;1.30;0.50;;;;;;;12.36;95.79;100570.66;5006932;28;20030;-49